Time;durP1;ratioP1;P1;durP2;ratioP2;P2;SDS_P1;SDS_P2;PMS_P1;PMS_P2;Temp;Humidity;BMP_temperature;BMP_pressure;BME280_temperature;BME280_humidity;BME280_pressure;Samples;Min_cycle;Max_cycle;Signal;HPM_P1;HPM_P2
2023/06/11 00:00:54;;;;;;;6.90;6.50;;;23.50;44.90;;;;;;21094;6650;276051;-76
2023/06/11 00:03:21;;;;;;;6.80;6.40;;;23.50;45.30;;;;;;21105;6650;304565;-76
2023/06/11 00:05:45;;;;;;;6.70;6.30;;;23.60;45.10;;;;;;21110;6650;301032;-77
2023/06/11 00:08:10;;;;;;;6.47;6.17;;;23.80;45.00;;;;;;21107;6650;301026;-76
2023/06/11 00:10:36;;;;;;;6.60;6.10;;;23.90;44.90;;;;;;21321;6650;70610;-76
2023/06/11 00:13:01;;;;;;;6.50;6.20;;;23.60;44.90;;;;;;21114;6650;275974;-76
2023/06/11 00:15:27;;;;;;;6.97;6.47;;;23.50;45.40;;;;;;21125;6650;272118;-76
2023/06/11 00:17:53;;;;;;;7.00;6.60;;;23.60;45.30;;;;;;21126;6650;313138;-76
2023/06/11 00:20:18;;;;;;;7.13;6.57;;;23.80;45.20;;;;;;21098;6650;271986;-76
2023/06/11 00:22:44;;;;;;;6.60;6.30;;;23.80;45.10;;;;;;21121;6650;300619;-76
2023/06/11 00:25:09;;;;;;;6.60;6.10;;;23.90;45.00;;;;;;21317;6650;66167;-76
2023/06/11 00:27:35;;;;;;;6.10;5.80;;;23.50;45.10;;;;;;21306;6650;88708;-77
2023/06/11 00:30:03;;;;;;;6.35;5.95;;;23.10;45.50;;;;;;21293;6650;68867;-78
2023/06/11 00:32:26;;;;;;;6.60;6.20;;;22.80;46.00;;;;;;21261;6651;71225;-76
2023/06/11 00:34:52;;;;;;;7.00;6.60;;;22.50;46.30;;;;;;21111;6636;303084;-75
2023/06/11 00:37:17;;;;;;;6.97;6.50;;;22.70;47.00;;;;;;21062;6651;301156;-77
2023/06/11 00:39:43;;;;;;;6.00;5.70;;;22.90;46.40;;;;;;21286;6651;74144;-76
2023/06/11 00:42:10;;;;;;;6.73;6.17;;;22.90;46.40;;;;;;21324;6636;66194;-76
2023/06/11 00:44:36;;;;;;;6.95;6.40;;;22.60;46.60;;;;;;21328;6651;66279;-76
2023/06/11 00:47:03;;;;;;;6.77;6.43;;;22.40;46.90;;;;;;21171;6636;273704;-76
2023/06/11 00:49:28;;;;;;;7.30;6.80;;;22.50;47.40;;;;;;21155;6634;301782;-76
2023/06/11 00:51:54;;;;;;;6.60;6.30;;;22.90;47.10;;;;;;21370;6636;65702;-76
2023/06/11 00:54:19;;;;;;;6.70;6.30;;;22.80;46.90;;;;;;21325;6651;69949;-76
2023/06/11 00:56:45;;;;;;;7.57;7.17;;;22.40;47.00;;;;;;21155;6636;300632;-76
2023/06/11 00:59:11;;;;;;;7.22;6.82;;;22.60;47.50;;;;;;21087;6651;302331;-76
2023/06/11 01:01:45;;;;;;;7.10;6.60;;;22.90;47.20;;;;;;21323;6651;73573;-76
2023/06/11 01:04:13;;;;;;;7.47;6.97;;;22.70;46.90;;;;;;21088;6651;272850;-76
2023/06/11 01:06:37;;;;;;;7.72;7.32;;;22.80;47.20;;;;;;21093;6651;305612;-76
2023/06/11 01:09:03;;;;;;;7.80;7.40;;;23.00;46.90;;;;;;21109;6651;275203;-76
2023/06/11 01:11:32;;;;;;;7.00;6.60;;;23.20;46.70;;;;;;21315;6651;66524;-76
2023/06/11 01:13:54;;;;;;;6.50;6.20;;;22.90;46.60;;;;;;21352;6636;77937;-76
2023/06/11 01:16:36;;;;;;;6.47;6.18;;;22.60;47.00;;;;;;21306;6650;95908;-76
2023/06/11 01:19:10;;;;;;;7.57;7.10;;;22.30;47.30;;;;;;21105;6650;276607;-76
2023/06/11 01:21:39;;;;;;;6.33;6.03;;;22.40;47.70;;;;;;20068;7042;69633;-76
2023/06/11 01:24:40;;;;;;;6.57;6.17;;;22.10;47.70;;;;;;21190;6650;67921;-75
2023/06/11 01:27:09;;;;;;;7.23;6.83;;;22.10;47.70;;;;;;21307;6650;66210;-76
2023/06/11 01:29:37;;;;;;;7.07;6.67;;;21.80;47.90;;;;;;21317;6650;68627;-76
2023/06/11 01:32:02;;;;;;;7.10;6.70;;;21.70;48.20;;;;;;21087;6650;303321;-77
2023/06/11 01:34:28;;;;;;;7.73;7.23;;;21.90;48.90;;;;;;21111;6650;272383;-76
2023/06/11 01:36:54;;;;;;;6.27;5.97;;;22.20;48.10;;;;;;21336;6650;66681;-76
2023/06/11 01:39:21;;;;;;;7.45;7.05;;;22.30;48.30;;;;;;21111;6650;308193;-77
2023/06/11 01:41:46;;;;;;;8.05;7.57;;;22.30;48.30;;;;;;21106;6650;306289;-76
2023/06/11 01:44:14;;;;;;;7.47;7.07;;;22.70;47.60;;;;;;21107;6650;296897;-77
2023/06/11 01:46:39;;;;;;;7.78;7.30;;;22.70;47.60;;;;;;21111;6650;271901;-76
2023/06/11 01:49:05;;;;;;;7.50;6.97;;;22.90;47.40;;;;;;21110;6650;273047;-77
2023/06/11 01:51:32;;;;;;;7.03;6.57;;;23.00;47.10;;;;;;21316;6650;66646;-76
2023/06/11 01:53:57;;;;;;;7.27;6.67;;;22.70;47.20;;;;;;21331;6650;72528;-76
2023/06/11 01:56:23;;;;;;;6.93;6.47;;;22.30;47.60;;;;;;21340;6650;67208;-76
2023/06/11 01:58:50;;;;;;;7.45;7.07;;;22.00;48.10;;;;;;21126;6650;301853;-76
2023/06/11 02:01:15;;;;;;;7.10;6.70;;;22.10;48.40;;;;;;21120;6649;293517;-77
2023/06/11 02:03:41;;;;;;;7.82;7.43;;;22.40;48.10;;;;;;21137;6650;271604;-76
2023/06/11 02:06:07;;;;;;;6.67;6.33;;;22.60;47.70;;;;;;21339;6650;73045;-76
2023/06/11 02:08:32;;;;;;;7.55;7.15;;;22.40;47.80;;;;;;21114;6650;301464;-76
2023/06/11 02:10:57;;;;;;;7.43;6.93;;;22.40;48.00;;;;;;21099;6650;301291;-76
2023/06/11 02:13:25;;;;;;;7.53;7.03;;;22.60;47.80;;;;;;21106;6650;277457;-76
2023/06/11 02:15:48;;;;;;;6.70;6.30;;;22.70;47.50;;;;;;21313;6650;66885;-77
2023/06/11 02:18:14;;;;;;;7.27;6.87;;;22.50;47.60;;;;;;21338;6650;66468;-76
2023/06/11 02:20:40;;;;;;;6.70;6.30;;;21.70;48.20;;;;;;21323;6650;66224;-76
2023/06/11 02:23:06;;;;;;;7.60;7.10;;;21.70;48.30;;;;;;21115;6650;332453;-76
2023/06/11 02:25:31;;;;;;;7.03;6.67;;;21.90;48.80;;;;;;21335;6650;67286;-76
2023/06/11 02:27:57;;;;;;;8.00;7.50;;;21.80;48.70;;;;;;21112;6650;297172;-76
2023/06/11 02:30:23;;;;;;;8.25;7.75;;;21.90;49.10;;;;;;21112;6650;324930;-76
2023/06/11 02:32:48;;;;;;;8.10;7.70;;;22.10;48.80;;;;;;21117;6650;305882;-76
2023/06/11 02:35:14;;;;;;;7.87;7.28;;;22.30;48.60;;;;;;21329;6650;67216;-76
2023/06/11 02:37:39;;;;;;;8.20;7.70;;;22.10;48.60;;;;;;21332;6650;66637;-76
2023/06/11 02:40:05;;;;;;;8.77;8.17;;;21.70;48.90;;;;;;21110;6650;300312;-77
2023/06/11 02:42:31;;;;;;;8.50;7.90;;;21.80;49.60;;;;;;21318;6650;65739;-76
2023/06/11 02:44:56;;;;;;;8.63;8.13;;;21.70;49.50;;;;;;21326;6650;66825;-77
2023/06/11 02:47:23;;;;;;;9.73;8.93;;;21.50;50.30;;;;;;21106;6650;271530;-76
2023/06/11 02:49:48;;;;;;;9.13;8.63;;;21.50;50.30;;;;;;21104;6650;273196;-76
2023/06/11 02:52:14;;;;;;;7.87;7.47;;;21.80;50.00;;;;;;21312;6650;66248;-76
2023/06/11 02:54:40;;;;;;;8.98;8.38;;;21.70;49.80;;;;;;21114;6650;271518;-76
2023/06/11 02:57:06;;;;;;;8.50;8.00;;;21.70;50.00;;;;;;21106;6650;300652;-78
2023/06/11 02:59:32;;;;;;;7.25;6.82;;;21.70;49.50;;;;;;21325;6650;66695;-79
2023/06/11 03:01:58;;;;;;;6.93;6.53;;;21.70;49.50;;;;;;21325;6650;66019;-76
2023/06/11 03:04:23;;;;;;;7.73;7.33;;;21.40;49.90;;;;;;21265;6650;117506;-76
2023/06/11 03:06:50;;;;;;;8.40;7.80;;;21.20;50.20;;;;;;20421;6857;309887;-76
2023/06/11 03:09:16;;;;;;;7.80;7.40;;;21.30;50.70;;;;;;20640;6865;117840;-76
2023/06/11 03:11:42;;;;;;;7.27;6.83;;;21.20;50.40;;;;;;20627;6863;117858;-76
2023/06/11 03:14:08;;;;;;;7.95;7.55;;;21.20;51.00;;;;;;20435;6862;295041;-76
2023/06/11 03:16:34;;;;;;;6.73;6.33;;;21.20;50.90;;;;;;20623;6862;119404;-76
2023/06/11 03:18:59;;;;;;;7.07;6.70;;;21.20;50.60;;;;;;20643;6865;117216;-76
2023/06/11 03:21:25;;;;;;;8.27;7.78;;;20.90;50.60;;;;;;20424;6865;298520;-76
2023/06/11 03:23:50;;;;;;;6.90;6.50;;;21.10;50.90;;;;;;20640;6865;117982;-76
2023/06/11 03:26:16;;;;;;;8.03;7.50;;;21.10;50.70;;;;;;20259;6850;278906;-78
2023/06/11 03:28:41;;;;;;;8.10;7.60;;;21.30;50.90;;;;;;20439;6850;307990;-77
2023/06/11 03:31:08;;;;;;;8.10;7.60;;;21.50;50.50;;;;;;20424;6850;310133;-76
2023/06/11 03:33:34;;;;;;;8.07;7.57;;;21.70;50.70;;;;;;20445;6852;280514;-77
2023/06/11 03:35:59;;;;;;;8.02;7.53;;;21.90;49.80;;;;;;20459;6852;313102;-76
2023/06/11 03:38:25;;;;;;;7.63;7.13;;;22.00;49.60;;;;;;20661;6850;140826;-77
2023/06/11 03:40:51;;;;;;;7.07;6.57;;;21.30;50.00;;;;;;20665;6850;117452;-76
2023/06/11 03:43:17;;;;;;;6.80;6.40;;;21.30;50.00;;;;;;20676;6850;118814;-76
2023/06/11 03:45:43;;;;;;;7.87;7.37;;;21.10;51.00;;;;;;20474;6850;292665;-76
2023/06/11 03:48:10;;;;;;;7.17;6.87;;;21.10;51.00;;;;;;20698;6850;117585;-76
2023/06/11 03:50:35;;;;;;;7.60;7.20;;;21.10;50.80;;;;;;20470;6850;323737;-76
2023/06/11 03:53:01;;;;;;;7.97;7.47;;;21.20;51.00;;;;;;20456;6850;337760;-76
2023/06/11 03:55:27;;;;;;;7.62;7.22;;;21.50;50.70;;;;;;20482;6850;312134;-76
2023/06/11 03:57:52;;;;;;;7.17;6.77;;;21.70;50.20;;;;;;20684;6850;117508;-76
2023/06/11 04:00:18;;;;;;;7.27;6.80;;;21.50;50.10;;;;;;20666;6850;118145;-76
2023/06/11 04:02:43;;;;;;;6.47;6.10;;;21.20;50.40;;;;;;20694;6850;117366;-77
2023/06/11 04:05:09;;;;;;;7.87;7.37;;;21.20;51.20;;;;;;20474;6850;278501;-76
2023/06/11 04:07:35;;;;;;;7.57;7.17;;;21.10;51.10;;;;;;20464;6850;308180;-76
2023/06/11 04:10:01;;;;;;;7.30;6.80;;;21.50;50.80;;;;;;20682;6850;117532;-76
2023/06/11 04:12:26;;;;;;;8.07;7.57;;;21.40;50.00;;;;;;20436;6850;300104;-75
2023/06/11 04:14:52;;;;;;;7.53;7.13;;;21.50;50.70;;;;;;20673;6850;118079;-75
2023/06/11 04:17:17;;;;;;;8.17;7.60;;;21.40;50.60;;;;;;20422;6867;310135;-75
2023/06/11 04:19:43;;;;;;;8.00;7.60;;;21.60;50.80;;;;;;20473;6850;314803;-75
2023/06/11 04:22:09;;;;;;;7.70;7.30;;;21.80;50.50;;;;;;20459;6850;278534;-75
2023/06/11 04:24:34;;;;;;;7.87;7.43;;;22.00;50.00;;;;;;20672;6848;117215;-75
2023/06/11 04:27:00;;;;;;;7.50;7.07;;;21.90;49.90;;;;;;20477;6850;278943;-75
2023/06/11 04:29:29;;;;;;;7.63;7.23;;;21.90;50.00;;;;;;20473;6850;278809;-75
2023/06/11 04:31:52;;;;;;;7.25;6.82;;;22.10;49.80;;;;;;20671;6850;117696;-75
2023/06/11 04:34:17;;;;;;;8.30;7.60;;;22.00;49.80;;;;;;20421;6850;308169;-76
2023/06/11 04:36:42;;;;;;;7.95;7.50;;;22.00;49.70;;;;;;20466;6850;338440;-75
2023/06/11 04:39:08;;;;;;;7.93;7.43;;;22.20;49.60;;;;;;20463;6850;283000;-75
2023/06/11 04:41:36;;;;;;;7.55;7.15;;;22.30;49.20;;;;;;20462;6850;278972;-75
2023/06/11 04:44:00;;;;;;;6.63;6.33;;;22.50;49.10;;;;;;20664;6850;118264;-76
2023/06/11 04:46:24;;;;;;;7.47;7.07;;;22.20;49.10;;;;;;20452;6850;279418;-75
2023/06/11 04:48:51;;;;;;;7.70;7.30;;;22.40;49.30;;;;;;20468;6850;338174;-75
2023/06/11 04:51:20;;;;;;;7.23;6.83;;;22.40;49.30;;;;;;20680;6850;69269;-76
2023/06/11 04:53:45;;;;;;;6.63;6.33;;;22.20;49.30;;;;;;20674;6850;117271;-75
2023/06/11 04:56:10;;;;;;;7.77;7.27;;;22.00;50.00;;;;;;20457;6850;308496;-75
2023/06/11 04:58:37;;;;;;;7.30;6.95;;;22.30;49.60;;;;;;20470;6850;282904;-75
2023/06/11 05:01:07;;;;;;;7.83;7.40;;;22.30;49.60;;;;;;20442;6850;308554;-75
2023/06/11 05:03:29;;;;;;;7.32;6.93;;;22.60;48.90;;;;;;20633;6850;118437;-75
2023/06/11 05:05:54;;;;;;;7.50;7.00;;;22.40;48.80;;;;;;20670;6850;117526;-77
2023/06/11 05:08:20;;;;;;;6.70;6.40;;;22.10;49.20;;;;;;20638;6850;117944;-75
2023/06/11 05:10:45;;;;;;;7.30;6.90;;;21.90;49.60;;;;;;20445;6850;308481;-73
2023/06/11 05:13:12;;;;;;;7.60;7.10;;;22.10;49.80;;;;;;20455;6850;307603;-76
2023/06/11 05:15:38;;;;;;;6.80;6.30;;;22.50;49.00;;;;;;20661;6850;117642;-76
2023/06/11 05:18:04;;;;;;;6.90;6.60;;;22.50;49.00;;;;;;20679;6850;117276;-75
2023/06/11 05:20:29;;;;;;;7.13;6.73;;;22.30;49.10;;;;;;20416;6850;354292;-74
2023/06/11 05:22:58;;;;;;;7.70;7.30;;;22.50;49.00;;;;;;20471;6850;278242;-76
2023/06/11 05:25:22;;;;;;;6.43;6.07;;;22.80;48.50;;;;;;20654;6850;117553;-78
2023/06/11 05:27:46;;;;;;;7.60;7.20;;;22.80;48.50;;;;;;20443;6850;308545;-83
2023/06/11 05:30:12;;;;;;;7.03;6.43;;;22.90;48.50;;;;;;20657;6850;117598;-76
2023/06/11 05:32:38;;;;;;;7.07;6.53;;;22.80;48.40;;;;;;20668;6850;119606;-77
2023/06/11 05:35:05;;;;;;;30.90;28.20;;;22.70;48.70;;;;;;20464;6848;303112;-77
2023/06/11 05:37:30;;;;;;;7.83;7.33;;;22.80;48.40;;;;;;20293;6849;278116;-77
2023/06/11 05:39:55;;;;;;;7.33;6.93;;;23.10;47.90;;;;;;20438;6850;283415;-77
2023/06/11 05:42:23;;;;;;;7.32;6.93;;;23.40;47.70;;;;;;20416;6850;312315;-77
2023/06/11 05:44:49;;;;;;;6.80;6.40;;;23.60;47.40;;;;;;20656;6850;122332;-77
2023/06/11 05:47:15;;;;;;;6.70;6.40;;;23.50;47.50;;;;;;20676;6850;117290;-77
2023/06/11 05:49:43;;;;;;;6.32;5.82;;;23.20;47.80;;;;;;20667;6850;118229;-77
2023/06/11 05:52:10;;;;;;;6.90;6.17;;;23.00;48.20;;;;;;20637;6850;117256;-76
2023/06/11 05:54:35;;;;;;;7.33;6.93;;;22.80;48.50;;;;;;20460;6850;308582;-78
2023/06/11 05:57:06;;;;;;;7.18;6.78;;;23.10;48.20;;;;;;20455;6850;309781;-80
2023/06/11 05:59:29;;;;;;;6.80;6.37;;;23.60;47.60;;;;;;20659;6850;117692;-80
2023/06/11 06:01:55;;;;;;;7.30;6.80;;;23.60;47.40;;;;;;20424;6850;338130;-83
2023/06/11 06:04:21;;;;;;;6.27;5.97;;;23.90;46.50;;;;;;20663;6850;120062;-77
2023/06/11 06:06:48;;;;;;;7.10;6.43;;;23.90;47.40;;;;;;20678;6850;117922;-77
2023/06/11 06:09:15;;;;;;;7.03;6.53;;;24.40;46.60;;;;;;20455;6850;308579;-79
2023/06/11 06:11:42;;;;;;;6.53;6.13;;;25.00;47.00;;;;;;20662;6850;119996;-78
2023/06/11 06:14:07;;;;;;;6.90;6.40;;;24.90;46.90;;;;;;20443;6850;328739;-78
2023/06/11 06:16:33;;;;;;;6.43;6.13;;;25.70;44.60;;;;;;20431;6850;316661;-80
2023/06/11 06:18:58;;;;;;;6.20;5.90;;;26.50;42.90;;;;;;20678;6850;121264;-80
2023/06/11 06:21:26;;;;;;;6.27;5.97;;;27.50;41.30;;;;;;20454;6850;279449;-77
2023/06/11 06:23:52;;;;;;;6.23;5.90;;;27.50;41.30;;;;;;20669;6850;118481;-77
2023/06/11 06:26:17;;;;;;;6.63;6.13;;;27.90;41.70;;;;;;20410;6850;305742;-76
2023/06/11 06:28:43;;;;;;;6.37;6.00;;;28.30;39.90;;;;;;20676;6850;117737;-77
2023/06/11 06:31:12;;;;;;;6.32;5.97;;;28.60;40.30;;;;;;20446;6850;308986;-78
2023/06/11 06:33:37;;;;;;;5.87;5.57;;;29.00;39.10;;;;;;20631;6850;117469;-77
2023/06/11 06:36:02;;;;;;;6.25;5.90;;;29.20;39.40;;;;;;20444;6850;313411;-80
2023/06/11 06:38:25;;;;;;;6.20;5.70;;;29.60;37.90;;;;;;20642;6850;124224;-76
2023/06/11 06:40:51;;;;;;;6.50;5.93;;;29.70;38.20;;;;;;20663;6850;121259;-81
2023/06/11 06:43:17;;;;;;;6.22;5.93;;;29.60;38.30;;;;;;20390;6850;309355;-80
2023/06/11 06:45:42;;;;;;;6.07;5.67;;;29.90;36.70;;;;;;20649;6850;119895;-77
2023/06/11 06:48:09;;;;;;;5.95;5.65;;;30.10;37.30;;;;;;20439;6848;313617;-80
2023/06/11 06:50:35;;;;;;;5.60;5.20;;;30.40;35.60;;;;;;20632;6850;117565;-81
2023/06/11 06:53:00;;;;;;;6.00;5.70;;;30.50;36.10;;;;;;20599;6866;118470;-78
2023/06/11 06:55:26;;;;;;;6.00;5.60;;;30.30;36.30;;;;;;20350;6881;309175;-77
2023/06/11 06:57:53;;;;;;;5.70;5.40;;;30.50;34.90;;;;;;20368;6873;279251;-79
2023/06/11 07:00:18;;;;;;;5.80;5.50;;;30.90;34.60;;;;;;20395;6854;279976;-77
2023/06/11 07:02:44;;;;;;;5.67;5.17;;;31.10;33.80;;;;;;20612;6873;117579;-78
2023/06/11 07:05:10;;;;;;;6.00;5.50;;;30.70;35.20;;;;;;20692;6854;120029;-79
2023/06/11 07:07:36;;;;;;;4.70;4.50;;;30.70;35.10;;;;;;20685;6854;117756;-76
2023/06/11 07:10:01;;;;;;;5.90;5.40;;;30.60;35.60;;;;;;20640;6854;119239;-78
2023/06/11 07:12:28;;;;;;;5.80;5.50;;;30.50;35.80;;;;;;20353;6854;278593;-78
2023/06/11 07:15:00;;;;;;;5.67;5.40;;;30.80;34.50;;;;;;20147;6854;279166;-77
2023/06/11 07:17:26;;;;;;;5.77;5.37;;;31.20;34.00;;;;;;20565;6854;118526;-82
2023/06/11 07:19:51;;;;;;;5.70;5.40;;;31.20;34.00;;;;;;20457;6855;308386;-78
2023/06/11 07:22:17;;;;;;;5.73;5.33;;;31.10;33.00;;;;;;20351;6873;309642;-77
2023/06/11 07:24:46;;;;;;;5.78;5.37;;;31.00;33.10;;;;;;20374;6877;295721;-78
2023/06/11 07:27:08;;;;;;;5.63;5.23;;;30.80;33.60;;;;;;20365;6873;310481;-77
2023/06/11 07:29:35;;;;;;;5.93;5.53;;;30.60;33.90;;;;;;20659;6854;118494;-76
2023/06/11 07:32:01;;;;;;;5.87;5.37;;;30.20;34.60;;;;;;20668;6854;117892;-77
2023/06/11 07:34:27;;;;;;;5.80;5.40;;;29.70;35.20;;;;;;20426;6854;341768;-77
2023/06/11 07:36:52;;;;;;;5.83;5.40;;;29.60;35.10;;;;;;20461;6854;279819;-77
2023/06/11 07:39:20;;;;;;;5.67;5.37;;;29.40;35.20;;;;;;20669;6854;120467;-77
2023/06/11 07:41:48;;;;;;;6.00;5.60;;;29.40;35.50;;;;;;20460;6854;311805;-78
2023/06/11 07:44:13;;;;;;;5.70;5.40;;;29.40;35.40;;;;;;20655;6854;118428;-78
2023/06/11 07:46:39;;;;;;;6.00;5.60;;;29.20;35.40;;;;;;20458;6854;278503;-77
2023/06/11 07:49:04;;;;;;;5.33;5.00;;;29.30;35.10;;;;;;20464;6854;307625;-80
2023/06/11 07:51:31;;;;;;;6.00;5.60;;;29.40;34.60;;;;;;20450;6854;307976;-76
2023/06/11 07:53:58;;;;;;;5.67;5.37;;;29.50;35.20;;;;;;20672;6854;121316;-78
2023/06/11 07:56:22;;;;;;;5.47;5.18;;;29.30;35.00;;;;;;20320;6854;293304;-77
2023/06/11 07:58:48;;;;;;;5.70;5.32;;;29.30;35.00;;;;;;20668;6853;117752;-77
2023/06/11 08:01:15;;;;;;;5.23;4.93;;;29.40;35.00;;;;;;20655;6854;118109;-77
2023/06/11 08:03:41;;;;;;;5.47;5.17;;;29.20;34.80;;;;;;20453;6854;284253;-75
2023/06/11 08:06:08;;;;;;;5.10;4.80;;;29.40;35.10;;;;;;20460;6854;278533;-78
2023/06/11 08:08:33;;;;;;;5.20;4.90;;;29.70;33.90;;;;;;20448;6854;279015;-78
2023/06/11 08:10:58;;;;;;;5.35;4.97;;;30.00;33.00;;;;;;20430;6854;315503;-78
2023/06/11 08:13:25;;;;;;;5.03;4.67;;;30.20;32.90;;;;;;20669;6854;117196;-79
2023/06/11 08:15:50;;;;;;;5.23;4.30;;;30.10;32.80;;;;;;20667;6854;118326;-78
2023/06/11 08:18:16;;;;;;;5.20;4.90;;;30.00;33.10;;;;;;20426;6854;338572;-79
2023/06/11 08:20:41;;;;;;;5.20;4.80;;;30.10;31.90;;;;;;20448;6854;329498;-79
2023/06/11 08:23:07;;;;;;;5.50;5.00;;;30.40;32.00;;;;;;20430;6854;278897;-80
2023/06/11 08:25:33;;;;;;;5.40;5.10;;;30.60;31.40;;;;;;20404;6854;313423;-78
2023/06/11 08:27:58;;;;;;;4.90;4.70;;;30.80;31.30;;;;;;20458;6854;308111;-83
2023/06/11 08:30:24;;;;;;;4.93;4.63;;;31.00;32.00;;;;;;20670;6854;117366;-79
2023/06/11 08:32:50;;;;;;;5.40;5.10;;;31.00;32.00;;;;;;20463;6854;283183;-80
2023/06/11 08:35:18;;;;;;;5.10;4.80;;;31.20;30.70;;;;;;20487;6854;315345;-80
2023/06/11 08:37:44;;;;;;;5.20;4.90;;;31.20;30.90;;;;;;20693;6854;121287;-77
2023/06/11 08:40:12;;;;;;;5.95;4.82;;;31.20;30.90;;;;;;20462;6854;304715;-78
2023/06/11 08:42:37;;;;;;;5.00;4.70;;;31.40;30.00;;;;;;20457;6854;312704;-79
2023/06/11 08:45:03;;;;;;;5.10;4.70;;;31.40;30.10;;;;;;20478;6854;278600;-81
2023/06/11 08:47:29;;;;;;;4.80;4.50;;;31.70;29.40;;;;;;20651;6854;118462;-80
2023/06/11 08:49:58;;;;;;;4.83;4.53;;;31.50;29.80;;;;;;20472;6854;317689;-81
2023/06/11 08:52:23;;;;;;;4.90;4.60;;;31.60;29.70;;;;;;20669;6854;118515;-78
2023/06/11 08:54:53;;;;;;;5.00;4.70;;;31.50;29.90;;;;;;20468;6854;278646;-82
2023/06/11 08:57:20;;;;;;;4.87;4.57;;;31.60;29.20;;;;;;20479;6854;341311;-81
2023/06/11 08:59:48;;;;;;;4.43;4.20;;;31.90;29.10;;;;;;20681;6854;118954;-83
2023/06/11 09:02:13;;;;;;;4.60;4.30;;;31.90;29.40;;;;;;20653;6854;125142;-81
2023/06/11 09:04:41;;;;;;;4.50;4.20;;;31.60;29.40;;;;;;20703;6855;67442;-80
2023/06/11 09:07:05;;;;;;;4.87;4.47;;;31.30;29.70;;;;;;20407;6855;312429;-82
2023/06/11 09:09:30;;;;;;;4.20;3.90;;;31.40;28.70;;;;;;20673;6855;117221;-79
2023/06/11 09:11:56;;;;;;;4.67;4.37;;;31.30;28.80;;;;;;20639;6854;117676;-78
2023/06/11 09:14:21;;;;;;;4.87;4.57;;;31.10;29.30;;;;;;20429;6854;308311;-80
2023/06/11 09:16:48;;;;;;;4.95;4.65;;;31.30;29.40;;;;;;20434;6854;308484;-79
2023/06/11 09:19:16;;;;;;;4.97;4.57;;;31.40;29.40;;;;;;20641;6854;119178;-77
2023/06/11 09:21:52;;;;;;;4.47;4.17;;;31.40;29.90;;;;;;20643;6854;119087;-80
2023/06/11 09:24:19;;;;;;;5.17;4.77;;;31.30;29.30;;;;;;20424;6854;308075;-78
2023/06/11 09:26:56;;;;;;;4.97;4.53;;;31.30;28.70;;;;;;20454;6854;306681;-79
2023/06/11 09:29:22;;;;;;;4.75;4.50;;;31.60;28.20;;;;;;20467;6854;337213;-78
2023/06/11 09:31:48;;;;;;;4.90;4.60;;;31.80;28.30;;;;;;20667;6854;117743;-79
2023/06/11 09:34:17;;;;;;;4.87;4.57;;;31.70;28.50;;;;;;20450;6854;326219;-80
2023/06/11 09:36:40;;;;;;;4.50;4.30;;;31.70;28.40;;;;;;20454;6854;308345;-79
2023/06/11 09:39:06;;;;;;;4.70;4.47;;;31.90;28.90;;;;;;20456;6854;307671;-80
2023/06/11 09:41:32;;;;;;;4.67;4.43;;;32.00;28.20;;;;;;20449;6854;313959;-77
2023/06/11 09:43:57;;;;;;;5.50;5.10;;;32.10;27.90;;;;;;20432;6854;337603;-76
2023/06/11 09:46:22;;;;;;;4.70;4.43;;;32.20;28.40;;;;;;20421;6854;307714;-75
2023/06/11 09:48:49;;;;;;;5.10;4.63;;;32.40;27.90;;;;;;20661;6854;123281;-77
2023/06/11 09:51:14;;;;;;;5.37;4.77;;;32.30;27.80;;;;;;20453;6854;283344;-76
2023/06/11 09:53:40;;;;;;;4.90;4.60;;;32.30;27.20;;;;;;20437;6854;307729;-76
2023/06/11 09:56:05;;;;;;;5.40;4.90;;;32.40;27.10;;;;;;20441;6854;279078;-79
2023/06/11 09:58:31;;;;;;;5.07;4.78;;;32.40;27.00;;;;;;20464;6854;278056;-76
2023/06/11 10:01:00;;;;;;;4.70;4.50;;;32.50;26.90;;;;;;20462;6854;309915;-81
2023/06/11 10:03:22;;;;;;;4.40;4.20;;;32.60;26.90;;;;;;20675;6854;117481;-82
2023/06/11 10:05:48;;;;;;;5.37;4.90;;;32.40;27.30;;;;;;20667;6854;117397;-83
2023/06/11 10:08:13;;;;;;;5.40;5.00;;;32.30;27.40;;;;;;20439;6854;279553;-79
2023/06/11 10:10:39;;;;;;;5.00;4.70;;;32.40;27.30;;;;;;20437;6854;308139;-79
2023/06/11 10:13:05;;;;;;;5.20;4.70;;;32.40;27.30;;;;;;20452;6854;310292;-82
2023/06/11 10:15:31;;;;;;;5.27;4.77;;;32.90;26.50;;;;;;20465;6854;314047;-80
2023/06/11 10:17:57;;;;;;;4.90;4.60;;;32.90;26.60;;;;;;20429;6854;283091;-81
2023/06/11 10:20:26;;;;;;;5.50;5.00;;;33.00;26.50;;;;;;20441;6854;309613;-81
2023/06/11 10:23:04;;;;;;;4.97;4.57;;;33.10;25.50;;;;;;20422;6853;287153;-78
2023/06/11 10:25:35;;;;;;;5.00;4.70;;;33.10;25.50;;;;;;20662;6854;117161;-75
2023/06/11 10:28:01;;;;;;;4.83;4.53;;;32.90;25.80;;;;;;20623;6854;123389;-75
2023/06/11 10:30:26;;;;;;;5.27;4.87;;;32.50;26.10;;;;;;20643;6854;118077;-76
2023/06/11 10:32:53;;;;;;;5.53;5.03;;;32.20;26.60;;;;;;20455;6854;278889;-76
2023/06/11 10:35:28;;;;;;;5.23;4.73;;;32.00;26.70;;;;;;20640;6854;123112;-76
2023/06/11 10:37:51;;;;;;;5.37;5.07;;;32.00;26.70;;;;;;20662;6854;118205;-76
2023/06/11 10:40:16;;;;;;;10.50;9.60;;;31.80;27.10;;;;;;20373;6854;306584;-77
2023/06/11 10:42:43;;;;;;;14.30;12.80;;;31.80;26.80;;;;;;20662;6854;120597;-76
2023/06/11 10:45:09;;;;;;;5.10;4.80;;;31.60;27.10;;;;;;20619;6854;122123;-77
2023/06/11 10:47:49;;;;;;;5.27;4.93;;;31.30;27.40;;;;;;20639;6854;117767;-77
2023/06/11 10:50:13;;;;;;;5.83;5.40;;;31.00;27.50;;;;;;20616;6854;120862;-76
2023/06/11 10:52:45;;;;;;;5.25;4.85;;;30.90;27.60;;;;;;20410;6854;339425;-81
2023/06/11 10:55:13;;;;;;;4.80;4.50;;;31.10;27.60;;;;;;20638;6854;117911;-77
2023/06/11 10:57:36;;;;;;;5.20;4.90;;;31.30;27.50;;;;;;20465;6854;310999;-78
2023/06/11 11:00:07;;;;;;;5.37;4.90;;;31.50;27.50;;;;;;20326;6854;309002;-78
2023/06/11 11:02:29;;;;;;;5.13;4.83;;;31.90;27.60;;;;;;20380;6854;318115;-79
2023/06/11 11:04:55;;;;;;;4.93;4.63;;;32.20;27.10;;;;;;20607;6854;123757;-76
2023/06/11 11:07:20;;;;;;;5.30;4.80;;;32.30;26.30;;;;;;20441;6854;311264;-81
2023/06/11 11:09:46;;;;;;;5.30;4.90;;;32.30;25.10;;;;;;20433;6854;307667;-79
2023/06/11 11:12:13;;;;;;;4.95;4.65;;;32.60;25.90;;;;;;20414;6854;282843;-78
2023/06/11 11:14:38;;;;;;;4.47;4.28;;;32.60;25.80;;;;;;20434;6854;313744;-79
2023/06/11 11:17:04;;;;;;;5.10;4.70;;;32.70;26.00;;;;;;20443;6854;310860;-81
2023/06/11 11:19:30;;;;;;;5.00;4.50;;;32.90;26.30;;;;;;20428;6854;313002;-79
2023/06/11 11:21:55;;;;;;;5.07;4.77;;;32.90;25.70;;;;;;20442;6854;308617;-79
2023/06/11 11:24:21;;;;;;;5.50;5.10;;;32.90;25.30;;;;;;20405;6854;308457;-77
2023/06/11 11:26:47;;;;;;;5.97;4.63;;;32.90;25.40;;;;;;20662;6854;122091;-78
2023/06/11 11:29:13;;;;;;;5.30;4.73;;;32.30;25.90;;;;;;20656;6854;117543;-78
2023/06/11 11:31:38;;;;;;;5.33;5.03;;;32.20;25.90;;;;;;20445;6854;309310;-78
2023/06/11 11:34:04;;;;;;;4.63;4.43;;;32.20;26.20;;;;;;20665;6853;118989;-80
2023/06/11 11:36:30;;;;;;;4.75;4.45;;;32.20;25.90;;;;;;20400;6854;397160;-76
2023/06/11 11:38:56;;;;;;;5.20;4.68;;;32.20;25.40;;;;;;20422;6854;307665;-80
2023/06/11 11:41:22;;;;;;;4.70;4.50;;;32.30;24.70;;;;;;20663;6854;117180;-81
2023/06/11 11:43:50;;;;;;;4.80;4.50;;;32.10;25.30;;;;;;20464;6854;340928;-80
2023/06/11 11:46:24;;;;;;;4.90;4.60;;;32.10;25.50;;;;;;20512;6854;123634;-77
2023/06/11 11:48:47;;;;;;;5.10;4.70;;;32.00;25.60;;;;;;20649;6854;117922;-76
2023/06/11 11:51:15;;;;;;;4.60;4.30;;;31.90;25.90;;;;;;20665;6854;118439;-75
2023/06/11 11:53:38;;;;;;;5.63;5.07;;;31.80;25.70;;;;;;20642;6854;117757;-75
2023/06/11 11:56:04;;;;;;;4.85;4.55;;;31.60;25.70;;;;;;20445;6854;299913;-76
2023/06/11 11:58:37;;;;;;;4.70;4.43;;;31.60;25.30;;;;;;20630;6854;118019;-75
2023/06/11 12:01:03;;;;;;;4.67;4.37;;;31.60;25.10;;;;;;20458;6854;278808;-77
2023/06/11 12:03:28;;;;;;;5.57;5.27;;;31.80;25.10;;;;;;20653;6854;117314;-76
2023/06/11 12:06:03;;;;;;;4.62;4.35;;;31.80;24.80;;;;;;20421;6854;283421;-78
2023/06/11 12:08:29;;;;;;;4.53;4.30;;;31.80;24.50;;;;;;20606;6854;123824;-77
2023/06/11 12:10:55;;;;;;;4.50;4.30;;;31.70;24.70;;;;;;20638;6854;117453;-78
2023/06/11 12:13:20;;;;;;;4.47;4.07;;;31.60;24.70;;;;;;20440;6854;286791;-76
2023/06/11 12:15:47;;;;;;;4.40;4.00;;;31.60;24.00;;;;;;20451;6854;308046;-77
2023/06/11 12:18:13;;;;;;;4.27;4.07;;;31.80;24.20;;;;;;20415;6854;277999;-76
2023/06/11 12:20:38;;;;;;;3.87;3.67;;;32.00;24.50;;;;;;20655;6854;77276;-77
2023/06/11 12:23:04;;;;;;;4.82;4.60;;;31.90;24.50;;;;;;20437;6854;321298;-75
2023/06/11 12:25:31;;;;;;;4.43;4.17;;;31.80;24.10;;;;;;20649;6854;120853;-74
2023/06/11 12:27:57;;;;;;;4.37;4.17;;;31.70;24.30;;;;;;20628;6854;117660;-74
2023/06/11 12:30:26;;;;;;;3.90;3.60;;;31.30;24.90;;;;;;20624;6854;117894;-77
2023/06/11 12:32:52;;;;;;;4.50;4.27;;;31.40;24.20;;;;;;20435;6854;307208;-76